Time;durP1;ratioP1;P1;durP2;ratioP2;P2;SDS_P1;SDS_P2;PMS_P1;PMS_P2;Temp;Humidity;BMP_temperature;BMP_pressure;BME280_temperature;BME280_humidity;BME280_pressure;Samples;Min_cycle;Max_cycle;Signal;HPM_P1;HPM_P2
2021/05/14 00:01:42;;;;;;;15.25;2.70;;;18.40;78.30;;;;;;5073423;28;20071;-76
2021/05/14 00:04:46;;;;;;;23.25;3.70;;;18.40;78.40;;;;;;5074728;28;20048;-78
2021/05/14 00:07:53;;;;;;;27.77;3.22;;;18.40;78.50;;;;;;5073715;28;20052;-78
2021/05/14 00:10:57;;;;;;;26.92;4.68;;;18.30;78.80;;;;;;5061271;28;20070;-78
2021/05/14 00:14:01;;;;;;;23.15;3.55;;;18.30;78.90;;;;;;5061140;28;20756;-78
2021/05/14 00:17:06;;;;;;;18.10;3.35;;;18.30;79.30;;;;;;5074227;28;20047;-78
2021/05/14 00:20:11;;;;;;;17.75;3.28;;;18.30;79.10;;;;;;5074935;28;20043;-78
2021/05/14 00:23:16;;;;;;;16.85;3.35;;;18.30;79.00;;;;;;5073339;28;20064;-76
2021/05/14 00:26:20;;;;;;;11.73;2.92;;;18.30;79.10;;;;;;5074599;28;20044;-77
2021/05/14 00:29:24;;;;;;;17.20;2.88;;;18.20;79.10;;;;;;5074357;28;20051;-78
2021/05/14 00:32:28;;;;;;;20.02;3.13;;;18.20;79.30;;;;;;5073839;28;20495;-77
2021/05/14 00:35:32;;;;;;;24.90;3.35;;;18.20;79.60;;;;;;5061668;28;20044;-76
2021/05/14 00:38:37;;;;;;;20.65;3.25;;;18.10;80.20;;;;;;5074742;28;20035;-78
2021/05/14 00:41:41;;;;;;;15.57;3.28;;;18.00;80.30;;;;;;5073728;28;20051;-77
2021/05/14 00:44:46;;;;;;;20.63;3.08;;;17.90;80.50;;;;;;5061081;28;20063;-77
2021/05/14 00:47:50;;;;;;;17.60;3.65;;;17.80;80.80;;;;;;5072970;28;20067;-78
2021/05/14 00:50:55;;;;;;;16.88;3.03;;;17.70;81.10;;;;;;5073270;28;20043;-78
2021/05/14 00:54:01;;;;;;;19.35;2.90;;;17.70;81.50;;;;;;5063074;28;20051;-77
2021/05/14 00:57:09;;;;;;;15.35;2.28;;;17.60;81.80;;;;;;5073536;28;20039;-79
2021/05/14 01:00:15;;;;;;;27.48;3.50;;;17.50;81.40;;;;;;5072845;28;20644;-78
2021/05/14 01:03:22;;;;;;;18.60;2.92;;;17.40;81.40;;;;;;5073216;28;20043;-77
2021/05/14 01:06:26;;;;;;;12.30;2.65;;;17.30;80.90;;;;;;5073184;28;20428;-77
2021/05/14 01:09:31;;;;;;;14.98;2.28;;;17.30;80.30;;;;;;5073363;28;20048;-77
2021/05/14 01:12:35;;;;;;;18.65;3.60;;;17.30;80.30;;;;;;5072732;28;20043;-77
2021/05/14 01:15:39;;;;;;;20.27;3.40;;;17.20;77.60;;;;;;5073218;28;20049;-78
2021/05/14 01:18:43;;;;;;;18.33;2.22;;;17.30;76.90;;;;;;5073839;28;20047;-77
2021/05/14 01:21:47;;;;;;;18.70;2.60;;;17.20;77.10;;;;;;5072656;28;20524;-78
2021/05/14 01:24:51;;;;;;;25.98;2.72;;;17.20;77.40;;;;;;5060251;28;20048;-77
2021/05/14 01:27:55;;;;;;;13.93;2.50;;;17.10;77.40;;;;;;5073231;28;20067;-77
2021/05/14 01:30:59;;;;;;;15.75;2.92;;;17.00;77.70;;;;;;5073008;28;20055;-78
2021/05/14 01:34:07;;;;;;;16.90;2.45;;;17.00;77.50;;;;;;5073202;28;20043;-78
2021/05/14 01:37:11;;;;;;;24.50;3.08;;;17.00;76.80;;;;;;5073199;28;20047;-77
2021/05/14 01:40:15;;;;;;;15.70;2.63;;;16.90;75.70;;;;;;5060926;28;20055;-76
2021/05/14 01:43:19;;;;;;;12.23;2.60;;;16.90;75.10;;;;;;5063148;28;20083;-77
2021/05/14 01:46:23;;;;;;;14.18;2.33;;;16.90;76.40;;;;;;5077329;28;20498;-77
2021/05/14 01:49:27;;;;;;;16.48;2.38;;;16.90;77.40;;;;;;5064216;28;20229;-76
2021/05/14 01:52:31;;;;;;;21.08;3.08;;;16.90;77.80;;;;;;5076675;28;20043;-77
2021/05/14 01:55:37;;;;;;;12.80;2.38;;;16.80;77.50;;;;;;5077029;28;20052;-77
2021/05/14 01:58:42;;;;;;;21.02;3.25;;;16.80;77.40;;;;;;5064405;28;20059;-77
2021/05/14 02:01:47;;;;;;;10.07;2.13;;;16.70;76.50;;;;;;5064560;28;20048;-77
2021/05/14 02:04:51;;;;;;;24.83;3.55;;;16.70;77.10;;;;;;5076976;28;20047;-77
2021/05/14 02:07:57;;;;;;;18.65;2.50;;;16.70;77.40;;;;;;5064367;28;20044;-76
2021/05/14 02:11:03;;;;;;;15.18;2.15;;;16.70;77.30;;;;;;5076632;28;20063;-77
2021/05/14 02:14:06;;;;;;;16.45;2.38;;;16.60;77.60;;;;;;5077480;28;20056;-77
2021/05/14 02:17:12;;;;;;;12.07;2.28;;;16.50;78.60;;;;;;5052098;28;20048;-77
2021/05/14 02:20:16;;;;;;;11.82;2.10;;;16.40;78.30;;;;;;5076418;28;20039;-77
2021/05/14 02:23:21;;;;;;;15.65;2.40;;;16.30;77.90;;;;;;5076776;28;20055;-78
2021/05/14 02:26:26;;;;;;;8.90;2.25;;;16.30;78.20;;;;;;5076913;28;20043;-78
2021/05/14 02:29:34;;;;;;;8.93;1.83;;;16.40;78.00;;;;;;5063181;28;20400;-78
2021/05/14 02:32:38;;;;;;;12.05;2.42;;;16.50;77.80;;;;;;5063971;28;20043;-78
2021/05/14 02:35:42;;;;;;;14.20;2.50;;;16.50;77.50;;;;;;5051933;28;20056;-77
2021/05/14 02:38:46;;;;;;;11.45;2.30;;;16.40;78.00;;;;;;5075938;28;20043;-78
2021/05/14 02:41:50;;;;;;;18.35;2.58;;;16.30;78.50;;;;;;5075606;28;20063;-78
2021/05/14 02:44:56;;;;;;;16.92;3.00;;;16.10;79.40;;;;;;5075622;28;20044;-77
2021/05/14 02:48:00;;;;;;;14.90;3.35;;;15.90;80.40;;;;;;5075691;28;20055;-77
2021/05/14 02:51:08;;;;;;;22.92;3.63;;;15.90;80.90;;;;;;5075211;28;20063;-78
2021/05/14 02:54:13;;;;;;;10.65;2.35;;;16.00;79.30;;;;;;5062246;28;20098;-78
2021/05/14 02:57:18;;;;;;;9.32;2.20;;;16.00;78.90;;;;;;5074747;28;20047;-77
2021/05/14 03:00:23;;;;;;;11.30;2.00;;;15.90;79.30;;;;;;5062544;28;20025;-76
2021/05/14 03:03:30;;;;;;;17.60;2.75;;;15.70;79.70;;;;;;5074576;28;20056;-77
2021/05/14 03:06:34;;;;;;;15.57;2.97;;;15.70;80.10;;;;;;5074715;28;20052;-78
2021/05/14 03:09:38;;;;;;;21.20;3.05;;;15.60;80.20;;;;;;5074664;28;20064;-78
2021/05/14 03:12:42;;;;;;;16.98;2.85;;;15.50;80.70;;;;;;5074307;28;20040;-78
2021/05/14 03:15:47;;;;;;;19.08;3.03;;;15.40;80.90;;;;;;5074166;28;20055;-78
2021/05/14 03:18:51;;;;;;;15.65;3.22;;;15.40;81.30;;;;;;5062111;28;20047;-78
2021/05/14 03:21:55;;;;;;;21.00;3.53;;;15.30;81.80;;;;;;5062348;28;20043;-78
2021/05/14 03:24:59;;;;;;;11.00;2.15;;;15.30;82.80;;;;;;5074361;28;20047;-78
2021/05/14 03:28:04;;;;;;;14.45;3.10;;;15.50;82.10;;;;;;5075039;28;20051;-77
2021/05/14 03:31:08;;;;;;;16.75;3.53;;;15.60;82.10;;;;;;5075923;28;20048;-78
2021/05/14 03:34:13;;;;;;;11.85;2.25;;;15.60;82.40;;;;;;5074473;28;20055;-76
2021/05/14 03:37:18;;;;;;;17.00;3.95;;;15.50;83.10;;;;;;5074724;28;20495;-76
2021/05/14 03:40:36;;;;;;;10.00;2.63;;;15.50;83.30;;;;;;5075422;28;20044;-77
2021/05/14 03:43:41;;;;;;;19.13;3.05;;;15.50;83.70;;;;;;5076065;28;20411;-78
2021/05/14 03:46:45;;;;;;;13.90;2.90;;;15.40;83.90;;;;;;5075926;28;20043;-78
2021/05/14 03:49:49;;;;;;;10.57;2.22;;;15.20;84.40;;;;;;5076190;28;20052;-77
2021/05/14 03:52:54;;;;;;;20.63;3.63;;;15.10;85.20;;;;;;5064814;28;20039;-77
2021/05/14 03:55:59;;;;;;;13.25;2.70;;;15.00;85.60;;;;;;5064299;28;20075;-77
2021/05/14 03:59:03;;;;;;;10.57;3.25;;;15.10;85.60;;;;;;5053912;28;20048;-77
2021/05/14 04:02:09;;;;;;;11.48;3.08;;;15.10;85.10;;;;;;5064293;28;20055;-77
2021/05/14 04:05:13;;;;;;;15.50;2.25;;;15.40;83.90;;;;;;5077016;28;20388;-77
2021/05/14 04:08:18;;;;;;;14.50;2.60;;;15.50;82.50;;;;;;5076512;28;20399;-77
2021/05/14 04:17:32;;;;;;;12.35;2.63;;;15.30;82.30;;;;;;5059771;28;20048;-78
2021/05/14 04:20:37;;;;;;;11.15;2.30;;;15.10;83.70;;;;;;5076477;28;20499;-78
2021/05/14 04:23:41;;;;;;;12.35;2.80;;;15.00;84.70;;;;;;5076337;28;20048;-77
2021/05/14 04:26:48;;;;;;;12.27;2.70;;;15.00;85.00;;;;;;5081129;28;20036;-77
2021/05/14 04:29:57;;;;;;;;;;;15.10;85.00;;;;;;5065108;28;20048;-77
2021/05/14 04:33:04;;;;;;;9.43;2.38;;;15.30;84.60;;;;;;5078075;28;19915;-76
2021/05/14 04:36:08;;;;;;;10.82;2.58;;;15.60;83.60;;;;;;5065909;28;20036;-77
2021/05/14 04:39:13;;;;;;;17.25;2.83;;;15.90;81.80;;;;;;5076260;28;20044;-76
2021/05/14 04:42:22;;;;;;;16.60;3.50;;;16.00;81.10;;;;;;5066320;28;20048;-76
2021/05/14 04:45:26;;;;;;;17.45;3.97;;;16.20;80.30;;;;;;5077304;28;20044;-77
2021/05/14 04:48:30;;;;;;;18.95;5.60;;;16.40;80.30;;;;;;5064055;28;20095;-78
2021/05/14 04:51:34;;;;;;;33.15;4.72;;;16.80;78.60;;;;;;5060781;28;20043;-78
2021/05/14 04:54:38;;;;;;;20.25;3.55;;;17.60;76.80;;;;;;5077114;28;20044;-77
2021/05/14 04:57:47;;;;;;;25.85;3.42;;;18.20;74.40;;;;;;5075365;28;20039;-78
2021/05/14 05:00:51;;;;;;;21.95;3.45;;;18.80;72.80;;;;;;5075509;28;20038;-77
2021/05/14 05:03:58;;;;;;;17.55;3.70;;;19.30;71.70;;;;;;5076581;28;20051;-76
2021/05/14 05:07:07;;;;;;;19.73;4.03;;;19.50;70.70;;;;;;5053094;28;20040;-78
2021/05/14 05:10:16;;;;;;;18.65;5.25;;;19.70;70.00;;;;;;5064312;28;20051;-76
2021/05/14 05:13:23;;;;;;;32.60;4.85;;;19.70;70.40;;;;;;5074771;28;20056;-76
2021/05/14 05:16:27;;;;;;;17.85;4.43;;;19.90;69.90;;;;;;5076320;28;20234;-77
2021/05/14 05:19:31;;;;;;;13.32;4.15;;;19.50;70.70;;;;;;5074480;28;20487;-71
2021/05/14 05:22:36;;;;;;;19.60;6.15;;;18.90;73.50;;;;;;5048505;28;20415;-71
2021/05/14 05:25:40;;;;;;;16.02;4.03;;;18.70;74.90;;;;;;5072703;28;20495;-71
2021/05/14 05:28:47;;;;;;;16.17;4.55;;;19.10;74.30;;;;;;5071768;28;20055;-69
2021/05/14 05:31:52;;;;;;;14.32;3.67;;;19.40;72.40;;;;;;5071082;28;20040;-70
2021/05/14 05:34:59;;;;;;;15.10;3.60;;;19.10;73.60;;;;;;5070796;28;20043;-69
2021/05/14 05:38:03;;;;;;;19.67;3.97;;;19.20;72.80;;;;;;5070932;28;20044;-68
2021/05/14 05:41:07;;;;;;;19.20;4.10;;;19.20;73.20;;;;;;5070618;28;20526;-70
2021/05/14 05:44:11;;;;;;;20.10;4.55;;;19.50;72.40;;;;;;5070965;28;20072;-70
2021/05/14 05:47:15;;;;;;;20.98;4.20;;;19.70;72.20;;;;;;5071303;28;20039;-70
2021/05/14 05:50:19;;;;;;;16.55;5.00;;;19.70;71.90;;;;;;5070735;28;20047;-69
2021/05/14 05:53:23;;;;;;;20.20;4.68;;;19.80;72.30;;;;;;5071548;28;20048;-70
2021/05/14 05:56:27;;;;;;;17.48;3.88;;;19.90;72.30;;;;;;5071142;28;20040;-69
2021/05/14 05:59:31;;;;;;;15.20;4.47;;;19.80;72.00;;;;;;5070939;28;20583;-70
2021/05/14 06:02:36;;;;;;;19.65;3.60;;;19.60;72.30;;;;;;5070651;28;20052;-70
2021/05/14 06:05:43;;;;;;;23.55;4.90;;;19.60;71.80;;;;;;5070489;28;20499;-68
2021/05/14 06:08:47;;;;;;;128.35;9.85;;;19.40;73.10;;;;;;5048748;28;20043;-71
2021/05/14 06:11:52;;;;;;;26.65;4.30;;;19.50;72.30;;;;;;5072483;28;20391;-68
2021/05/14 06:14:56;;;;;;;21.42;4.45;;;19.60;72.30;;;;;;5073210;28;20051;-72
2021/05/14 06:18:00;;;;;;;22.40;3.70;;;19.80;72.70;;;;;;5074604;28;20048;-73
2021/05/14 06:21:06;;;;;;;18.02;4.30;;;20.10;71.90;;;;;;5073130;28;20039;-73
2021/05/14 06:24:14;;;;;;;21.98;3.40;;;20.40;70.10;;;;;;5073157;28;20510;-72
2021/05/14 06:27:18;;;;;;;22.63;4.00;;;20.10;71.00;;;;;;5073706;28;20044;-73
2021/05/14 06:30:22;;;;;;;24.85;3.95;;;20.40;70.20;;;;;;5076998;28;20048;-73
2021/05/14 06:33:27;;;;;;;19.85;4.35;;;20.70;68.80;;;;;;5075762;28;20044;-74
2021/05/14 06:36:37;;;;;;;20.60;3.95;;;20.40;68.90;;;;;;5075691;28;20067;-73
2021/05/14 06:39:41;;;;;;;22.40;4.32;;;20.30;70.70;;;;;;5075905;28;20047;-75
2021/05/14 06:42:46;;;;;;;25.52;4.75;;;20.70;70.20;;;;;;5064080;28;20059;-73
2021/05/14 06:45:51;;;;;;;20.17;4.20;;;20.80;69.80;;;;;;5077993;28;20055;-77
2021/05/14 06:48:29;;;;;;;26.85;4.75;;;21.00;68.10;;;;;;5111438;27;20351;-76
2021/05/14 06:51:34;;;;;;;27.05;4.82;;;20.80;68.70;;;;;;5109730;28;20036;-75
2021/05/14 06:54:38;;;;;;;22.05;5.97;;;20.70;69.30;;;;;;5110750;28;20037;-74
2021/05/14 06:57:42;;;;;;;23.55;4.50;;;20.50;70.90;;;;;;5110856;28;20043;-75
2021/05/14 07:00:47;;;;;;;22.73;3.53;;;20.60;68.40;;;;;;5109625;28;20040;-74
2021/05/14 07:03:51;;;;;;;25.67;3.78;;;20.80;67.00;;;;;;5110117;28;20043;-73
2021/05/14 07:06:55;;;;;;;31.63;6.13;;;20.90;67.10;;;;;;5109943;28;20062;-73
2021/05/14 07:10:03;;;;;;;31.08;6.30;;;21.50;65.60;;;;;;5111717;28;20058;-74
2021/05/14 07:13:07;;;;;;;23.23;4.15;;;22.30;63.80;;;;;;5110815;28;20051;-74
2021/05/14 07:16:11;;;;;;;29.95;4.90;;;22.60;62.40;;;;;;5110889;28;20105;-72
2021/05/14 07:19:15;;;;;;;25.73;3.80;;;22.60;61.30;;;;;;5108682;28;20117;-72
2021/05/14 07:22:21;;;;;;;23.60;3.72;;;22.60;60.80;;;;;;5108593;28;20047;-73
2021/05/14 07:25:25;;;;;;;28.52;3.20;;;22.80;61.60;;;;;;5108138;28;20387;-73
2021/05/14 07:28:29;;;;;;;17.85;2.95;;;23.20;61.70;;;;;;5108468;28;20051;-73
2021/05/14 07:31:34;;;;;;;19.55;3.30;;;23.70;60.00;;;;;;5109665;28;20066;-74
2021/05/14 07:34:38;;;;;;;25.23;4.20;;;24.10;58.80;;;;;;5108992;28;20075;-73
2021/05/14 07:38:01;;;;;;;20.52;3.65;;;24.30;57.30;;;;;;5108210;28;20039;-73
2021/05/14 07:41:08;;;;;;;58.38;6.10;;;24.20;57.10;;;;;;5108128;28;20043;-74
2021/05/14 07:44:12;;;;;;;22.92;4.38;;;24.00;58.70;;;;;;5108976;28;20047;-74
2021/05/14 07:47:15;;;;;;;27.05;4.25;;;24.30;57.30;;;;;;5109222;28;20404;-73
2021/05/14 07:50:20;;;;;;;23.67;3.22;;;24.50;56.30;;;;;;5110629;28;20039;-73
2021/05/14 07:53:25;;;;;;;17.40;3.40;;;24.70;55.70;;;;;;5111166;28;20584;-73
2021/05/14 07:56:30;;;;;;;22.38;3.30;;;24.80;56.40;;;;;;5110250;28;20489;-74
2021/05/14 07:59:36;;;;;;;14.38;3.22;;;24.90;55.20;;;;;;5094338;28;20039;-74
2021/05/14 08:02:41;;;;;;;16.38;2.83;;;24.90;54.80;;;;;;5096262;28;20050;-74
2021/05/14 08:05:47;;;;;;;22.60;3.45;;;24.80;55.30;;;;;;5098323;28;20051;-73
2021/05/14 08:08:52;;;;;;;21.30;3.25;;;24.90;54.90;;;;;;5084604;28;20057;-73
2021/05/14 08:11:56;;;;;;;18.38;4.05;;;25.00;55.30;;;;;;5096533;28;20395;-73
2021/05/14 08:15:02;;;;;;;23.80;3.47;;;24.90;55.10;;;;;;5094421;28;20059;-72
2021/05/14 08:18:07;;;;;;;22.73;3.85;;;25.00;54.40;;;;;;5095446;28;20043;-74
2021/05/14 08:21:15;;;;;;;20.23;5.13;;;25.00;54.90;;;;;;5097772;28;20042;-74
2021/05/14 08:24:19;;;;;;;23.85;4.72;;;25.10;53.90;;;;;;5097247;28;20044;-76
2021/05/14 08:27:23;;;;;;;32.08;4.50;;;25.20;54.10;;;;;;5097111;28;20113;-72
2021/05/14 08:30:28;;;;;;;14.65;2.75;;;25.10;52.30;;;;;;5095740;28;20059;-75
2021/05/14 08:33:32;;;;;;;14.05;3.60;;;25.00;52.50;;;;;;5095652;28;20059;-74
2021/05/14 08:36:38;;;;;;;16.85;4.15;;;25.00;52.40;;;;;;5083111;28;20043;-75
2021/05/14 08:39:43;;;;;;;22.33;3.15;;;25.00;53.30;;;;;;5082545;28;20055;-73
2021/05/14 08:42:49;;;;;;;162.70;12.95;;;24.90;52.40;;;;;;5097226;28;20118;-74
2021/05/14 08:45:57;;;;;;;46.65;6.00;;;24.90;53.00;;;;;;5084981;28;20047;-73
2021/05/14 08:49:04;;;;;;;235.07;20.58;;;25.00;52.90;;;;;;5096079;28;20122;-74
2021/05/14 08:52:10;;;;;;;129.52;10.73;;;25.10;52.30;;;;;;5095640;28;20107;-75
2021/05/14 08:55:17;;;;;;;17.50;3.13;;;25.00;51.90;;;;;;5097247;28;20051;-73
2021/05/14 08:58:21;;;;;;;19.20;3.72;;;25.00;52.00;;;;;;5095314;28;20067;-74
2021/05/14 09:01:39;;;;;;;20.83;3.60;;;24.90;52.30;;;;;;5096042;28;20055;-74
2021/05/14 09:04:43;;;;;;;28.60;4.40;;;24.90;51.90;;;;;;5070851;28;20039;-74
2021/05/14 09:07:48;;;;;;;13.25;3.15;;;24.80;52.00;;;;;;5095773;28;20055;-74
2021/05/14 09:10:52;;;;;;;28.30;3.67;;;24.70;52.20;;;;;;5081650;28;20066;-74
2021/05/14 09:13:56;;;;;;;31.63;3.85;;;24.70;52.40;;;;;;5095962;28;20046;-73
2021/05/14 09:17:11;;;;;;;21.98;4.75;;;24.80;51.20;;;;;;5095007;28;20406;-73
2021/05/14 09:20:35;;;;;;;15.82;2.78;;;24.70;51.90;;;;;;5093310;28;20482;-75
2021/05/14 09:23:42;;;;;;;28.92;3.63;;;24.90;51.40;;;;;;5096031;28;20046;-73
2021/05/14 09:26:47;;;;;;;18.98;3.45;;;24.90;52.00;;;;;;5095986;28;20398;-74
2021/05/14 09:29:57;;;;;;;78.60;6.93;;;24.90;52.00;;;;;;5092916;28;20055;-72
2021/05/14 09:33:02;;;;;;;47.85;4.68;;;24.90;52.00;;;;;;5093415;28;20380;-73
2021/05/14 09:36:09;;;;;;;85.07;6.93;;;25.00;51.80;;;;;;5092193;28;20043;-75
2021/05/14 09:39:13;;;;;;;19.80;4.75;;;25.00;51.40;;;;;;5092737;28;20066;-74
2021/05/14 09:42:31;;;;;;;21.20;3.10;;;24.90;52.30;;;;;;5093431;28;20051;-75
2021/05/14 09:45:36;;;;;;;21.92;3.28;;;24.80;52.40;;;;;;5094223;28;20047;-75
2021/05/14 09:48:56;;;;;;;17.73;2.95;;;24.90;51.90;;;;;;5093599;28;20074;-73
2021/05/14 09:52:03;;;;;;;30.88;4.13;;;24.80;51.10;;;;;;5082534;28;20054;-72
2021/05/14 09:55:23;;;;;;;18.23;2.78;;;24.90;52.70;;;;;;5094619;28;20039;-73
2021/05/14 09:58:30;;;;;;;11.63;2.20;;;24.90;53.60;;;;;;5095121;28;20055;-73
2021/05/14 10:01:34;;;;;;;26.83;3.83;;;24.90;53.20;;;;;;5094125;28;20384;-74
2021/05/14 10:04:42;;;;;;;20.00;3.13;;;24.90;53.10;;;;;;5094273;28;20036;-74
2021/05/14 10:07:48;;;;;;;22.50;2.80;;;25.00;53.20;;;;;;5092253;28;20126;-72
2021/05/14 10:10:53;;;;;;;19.73;3.42;;;25.10;51.90;;;;;;5093955;28;20501;-76
2021/05/14 10:13:58;;;;;;;17.70;3.20;;;25.00;50.70;;;;;;5089691;28;20067;-72
2021/05/14 10:17:06;;;;;;;21.42;2.30;;;25.00;51.80;;;;;;5092149;28;20051;-76
2021/05/14 10:20:16;;;;;;;14.95;3.05;;;24.90;51.90;;;;;;5095030;28;20386;-71
2021/05/14 10:23:30;;;;;;;13.90;2.80;;;25.00;52.60;;;;;;5098467;28;20518;-74
2021/05/14 10:26:39;;;;;;;28.13;2.88;;;24.90;52.00;;;;;;5091492;28;20043;-74
2021/05/14 10:29:50;;;;;;;14.80;2.20;;;24.90;51.80;;;;;;5093117;28;20059;-75
2021/05/14 10:32:55;;;;;;;14.70;2.38;;;24.80;52.00;;;;;;5095341;28;20047;-75
2021/05/14 10:36:01;;;;;;;13.68;2.67;;;24.80;52.80;;;;;;5092757;28;20643;-72
2021/05/14 10:39:11;;;;;;;18.70;2.85;;;24.80;51.30;;;;;;5090052;28;20407;-74
2021/05/14 10:42:20;;;;;;;13.35;2.75;;;24.90;51.40;;;;;;5091457;28;20047;-76
2021/05/14 10:45:41;;;;;;;9.20;1.88;;;24.90;52.20;;;;;;5092793;28;20490;-74
2021/05/14 10:49:04;;;;;;;38.45;9.00;;;24.90;50.90;;;;;;5093368;28;20074;-76
2021/05/14 10:52:09;;;;;;;10.90;2.05;;;24.80;52.10;;;;;;5093520;28;20035;-76
2021/05/14 10:55:32;;;;;;;10.27;2.03;;;24.80;50.40;;;;;;5092947;28;20039;-76
2021/05/14 10:58:51;;;;;;;9.90;2.55;;;24.80;51.10;;;;;;5097058;28;20039;-75
2021/05/14 11:01:58;;;;;;;7.78;1.73;;;24.80;50.90;;;;;;5093995;28;20036;-75
2021/05/14 11:05:22;;;;;;;18.17;2.05;;;24.70;52.20;;;;;;5091994;28;20036;-75
2021/05/14 11:08:34;;;;;;;11.77;2.05;;;24.70;49.90;;;;;;5095503;28;20478;-74
2021/05/14 11:12:02;;;;;;;13.32;2.70;;;24.50;49.60;;;;;;5095838;28;20039;-75
2021/05/14 11:15:28;;;;;;;11.75;1.90;;;24.50;50.80;;;;;;5096150;28;20256;-74
2021/05/14 11:18:33;;;;;;;14.20;2.90;;;24.40;51.30;;;;;;5094630;28;20043;-76
2021/05/14 11:22:00;;;;;;;10.07;1.85;;;24.40;51.00;;;;;;5097213;28;20047;-76
2021/05/14 11:25:16;;;;;;;17.83;2.40;;;24.30;49.60;;;;;;5095763;28;20475;-75
2021/05/14 11:28:47;;;;;;;15.57;1.90;;;24.20;49.90;;;;;;5093075;28;20051;-75
2021/05/14 11:32:29;;;;;;;22.40;2.08;;;24.20;48.80;;;;;;5092708;28;20502;-75
2021/05/14 11:35:39;;;;;;;7.55;1.92;;;24.20;48.50;;;;;;5099374;28;20106;-75
2021/05/14 11:38:56;;;;;;;7.88;1.73;;;24.30;49.30;;;;;;5098996;28;20028;-75
2021/05/14 11:42:00;;;;;;;14.13;2.50;;;24.40;50.00;;;;;;5095056;28;20498;-73
2021/05/14 11:45:10;;;;;;;14.77;1.95;;;24.50;49.20;;;;;;5094571;28;20039;-74
2021/05/14 11:48:23;;;;;;;7.88;1.23;;;24.50;48.00;;;;;;5096927;28;20059;-74
2021/05/14 11:51:27;;;;;;;8.45;1.77;;;24.30;46.60;;;;;;5098187;28;20051;-76
2021/05/14 11:54:32;;;;;;;10.77;2.10;;;24.10;48.30;;;;;;5099041;28;20376;-75
2021/05/14 11:57:39;;;;;;;11.38;1.55;;;24.00;48.40;;;;;;5098523;28;20043;-75
2021/05/14 12:00:56;;;;;;;9.40;1.70;;;23.90;47.90;;;;;;5099778;28;20042;-75
2021/05/14 12:04:00;;;;;;;7.20;1.80;;;23.80;48.40;;;;;;5073848;28;20044;-75
2021/05/14 12:07:04;;;;;;;9.52;1.70;;;23.70;50.30;;;;;;5098335;28;20029;-75
2021/05/14 12:10:12;;;;;;;13.20;1.90;;;23.50;47.90;;;;;;5097434;28;20032;-74
2021/05/14 12:13:21;;;;;;;12.55;1.85;;;23.50;48.50;;;;;;5098207;28;20520;-75
2021/05/14 12:16:30;;;;;;;8.85;1.65;;;23.60;49.00;;;;;;5098685;28;20039;-75
2021/05/14 12:19:48;;;;;;;10.95;1.77;;;23.50;49.30;;;;;;5097359;28;20049;-76
2021/05/14 12:22:58;;;;;;;8.20;1.88;;;23.50;50.00;;;;;;5097017;28;20062;-76
2021/05/14 12:26:06;;;;;;;14.40;3.75;;;23.50;50.50;;;;;;5097397;28;20404;-76
2021/05/14 12:29:24;;;;;;;17.60;2.00;;;23.40;50.90;;;;;;5096930;28;20530;-74
2021/05/14 12:32:29;;;;;;;9.07;1.75;;;23.20;46.50;;;;;;5097443;28;20043;-73
2021/05/14 12:35:34;;;;;;;10.55;2.00;;;23.10;47.80;;;;;;5096899;28;20032;-73
2021/05/14 12:38:49;;;;;;;13.15;1.88;;;23.10;50.10;;;;;;5098045;28;20051;-74
2021/05/14 12:42:02;;;;;;;9.02;2.20;;;23.20;51.10;;;;;;5095959;28;20241;-73
2021/05/14 12:45:10;;;;;;;7.00;1.58;;;23.30;50.50;;;;;;5099395;28;20052;-74
2021/05/14 12:48:23;;;;;;;12.35;1.92;;;23.40;47.40;;;;;;5092678;28;20047;-73
2021/05/14 12:51:28;;;;;;;30.50;2.58;;;23.40;48.90;;;;;;5096861;28;20047;-73
2021/05/14 12:54:35;;;;;;;16.50;2.17;;;23.50;49.20;;;;;;5098338;28;20360;-74
2021/05/14 12:58:06;;;;;;;14.45;2.58;;;23.40;48.90;;;;;;5099552;28;20506;-73
2021/05/14 13:01:23;;;;;;;16.15;2.45;;;23.30;52.80;;;;;;5093603;28;20043;-73
2021/05/14 13:04:33;;;;;;;16.30;2.28;;;23.20;51.10;;;;;;5096114;28;20035;-73
2021/05/14 13:07:38;;;;;;;10.75;2.10;;;23.20;51.20;;;;;;5098306;28;20043;-73
2021/05/14 13:10:45;;;;;;;11.75;2.42;;;23.20;52.60;;;;;;5099828;28;20557;-73
2021/05/14 13:13:49;;;;;;;19.02;3.15;;;23.00;52.80;;;;;;5099334;28;20042;-74
2021/05/14 13:16:55;;;;;;;10.85;1.70;;;23.00;53.70;;;;;;5084522;28;20043;-73
2021/05/14 13:20:08;;;;;;;10.85;1.70;;;23.00;53.50;;;;;;5095925;28;20035;-74
2021/05/14 13:23:17;;;;;;;14.85;2.28;;;23.10;52.10;;;;;;5095021;28;20043;-73
2021/05/14 13:26:27;;;;;;;9.73;1.80;;;23.20;52.70;;;;;;5094522;28;20040;-73
2021/05/14 13:29:33;;;;;;;10.43;1.70;;;23.40;54.10;;;;;;5094216;28;20036;-74
2021/05/14 13:32:38;;;;;;;7.85;2.03;;;23.60;51.60;;;;;;5095578;28;20125;-74
2021/05/14 13:36:04;;;;;;;5.70;1.80;;;23.50;50.70;;;;;;5093370;28;20047;-72
2021/05/14 13:39:28;;;;;;;8.77;2.22;;;23.50;53.00;;;;;;5097902;28;20528;-80
2021/05/14 13:42:54;;;;;;;9.95;2.17;;;23.50;52.20;;;;;;5098509;28;20060;-81
2021/05/14 13:46:18;;;;;;;12.82;2.70;;;23.50;52.90;;;;;;5096620;28;20053;-79
2021/05/14 13:49:22;;;;;;;10.70;1.80;;;23.40;52.20;;;;;;5097716;28;20055;-78
2021/05/14 13:52:30;;;;;;;8.98;1.77;;;23.40;51.70;;;;;;5099590;28;20037;-79
2021/05/14 13:55:34;;;;;;;9.05;2.30;;;23.40;52.50;;;;;;5100318;28;20040;-82
2021/05/14 13:58:42;;;;;;;10.95;2.30;;;23.50;52.50;;;;;;5097389;28;20033;-77
2021/05/14 14:01:46;;;;;;;12.52;1.52;;;23.40;52.50;;;;;;5099142;28;20043;-85
2021/05/14 14:04:52;;;;;;;11.48;1.80;;;23.40;51.60;;;;;;5101107;28;20031;-77
2021/05/14 14:08:12;;;;;;;19.40;2.88;;;23.50;52.40;;;;;;5100517;28;20066;-83
2021/05/14 14:11:16;;;;;;;11.25;1.70;;;23.40;54.00;;;;;;5100191;28;20058;-80
2021/05/14 14:14:25;;;;;;;12.93;2.67;;;23.40;54.00;;;;;;5099697;28;20038;-76
2021/05/14 14:17:34;;;;;;;5.65;1.50;;;23.40;52.10;;;;;;5093660;28;20035;-78
2021/05/14 14:20:38;;;;;;;10.02;1.95;;;23.40;51.40;;;;;;5095601;28;20068;-75
2021/05/14 14:23:43;;;;;;;10.52;1.83;;;23.40;51.80;;;;;;5096282;28;20055;-75
2021/05/14 14:26:48;;;;;;;9.52;2.05;;;23.30;53.50;;;;;;5091229;28;20388;-74
2021/05/14 14:29:53;;;;;;;20.98;2.50;;;23.30;53.90;;;;;;5090889;28;20048;-74
2021/05/14 14:32:58;;;;;;;15.40;2.13;;;23.30;52.10;;;;;;5090850;28;20043;-74
2021/05/14 14:36:03;;;;;;;10.10;2.70;;;23.30;53.40;;;;;;5090956;28;20529;-75
2021/05/14 14:39:07;;;;;;;12.95;2.58;;;23.30;53.90;;;;;;5090566;28;20039;-76
2021/05/14 14:42:12;;;;;;;12.32;2.05;;;23.30;53.30;;;;;;5091271;28;20047;-76
2021/05/14 14:45:16;;;;;;;23.45;2.08;;;23.30;52.20;;;;;;5090954;28;20039;-75
2021/05/14 14:48:21;;;;;;;9.55;1.40;;;23.30;52.40;;;;;;5090210;28;20059;-75
2021/05/14 14:51:26;;;;;;;11.32;1.88;;;23.30;51.50;;;;;;5090761;28;20035;-76
2021/05/14 14:54:30;;;;;;;11.65;1.63;;;23.20;52.40;;;;;;5090800;28;20050;-74
2021/05/14 14:57:34;;;;;;;8.95;2.40;;;23.10;52.50;;;;;;5090692;28;20043;-75
2021/05/14 15:00:39;;;;;;;15.38;1.90;;;23.10;53.80;;;;;;5090585;28;20127;-74
2021/05/14 15:03:43;;;;;;;12.90;2.97;;;23.00;54.10;;;;;;5088599;28;20378;-76
2021/05/14 15:06:53;;;;;;;12.52;2.53;;;23.00;55.00;;;;;;5089830;28;20042;-75
2021/05/14 15:09:57;;;;;;;13.25;2.78;;;22.90;55.00;;;;;;5093518;28;20055;-78
2021/05/14 15:13:01;;;;;;;9.73;2.15;;;22.80;55.20;;;;;;5094688;28;20055;-75
2021/05/14 15:16:05;;;;;;;19.80;2.38;;;22.60;55.60;;;;;;5094562;28;20029;-75
2021/05/14 15:19:10;;;;;;;18.15;2.40;;;22.50;55.60;;;;;;5094445;28;20423;-73
2021/05/14 15:22:14;;;;;;;12.13;2.72;;;22.50;55.90;;;;;;5093270;28;20035;-76
2021/05/14 15:25:18;;;;;;;22.40;2.03;;;22.50;55.40;;;;;;5094309;28;20042;-73
2021/05/14 15:28:26;;;;;;;11.60;2.25;;;22.50;56.50;;;;;;5093553;28;20506;-74
2021/05/14 15:31:30;;;;;;;20.45;2.90;;;22.60;57.60;;;;;;5094083;28;20039;-76
2021/05/14 15:34:37;;;;;;;23.63;3.53;;;22.60;57.70;;;;;;5094026;28;20067;-75
2021/05/14 15:37:41;;;;;;;10.82;2.10;;;22.60;57.00;;;;;;5093497;28;20046;-74
2021/05/14 15:40:45;;;;;;;16.55;2.60;;;22.50;56.30;;;;;;5093808;28;20426;-75
2021/05/14 15:43:50;;;;;;;13.95;2.20;;;22.40;57.30;;;;;;5094460;28;20402;-75
2021/05/14 15:46:56;;;;;;;15.05;3.03;;;22.30;56.10;;;;;;5094100;28;20067;-75
2021/05/14 15:50:00;;;;;;;20.50;3.20;;;22.30;56.20;;;;;;5093818;28;20513;-75
2021/05/14 15:53:04;;;;;;;18.05;2.30;;;22.30;57.30;;;;;;5092906;28;20039;-75
2021/05/14 15:56:07;;;;;;;15.02;2.25;;;22.30;57.60;;;;;;5094188;28;20046;-75
2021/05/14 15:59:12;;;;;;;17.10;2.55;;;22.30;57.60;;;;;;5093841;28;20430;-75
2021/05/14 16:02:16;;;;;;;23.00;3.58;;;22.20;58.10;;;;;;5081133;28;20062;-75
2021/05/14 16:05:20;;;;;;;17.73;2.80;;;22.20;58.50;;;;;;5093473;28;20383;-74
2021/05/14 16:08:25;;;;;;;13.88;2.00;;;22.20;58.30;;;;;;5093896;28;20506;-74